createdAt,value
2019-01-23T00:01:54.428Z,5.00
2019-01-23T00:04:34.471Z,4.57
2019-01-23T00:07:07.032Z,4.60
2019-01-23T00:09:36.522Z,5.20
2019-01-23T00:12:06.311Z,4.60
2019-01-23T00:14:44.924Z,5.23
2019-01-23T00:17:14.456Z,4.77
2019-01-23T00:19:43.954Z,5.23
2019-01-23T00:22:13.466Z,5.43
2019-01-23T00:24:43.015Z,5.20
2019-01-23T00:27:12.524Z,4.77
2019-01-23T00:29:42.031Z,4.50
2019-01-23T00:32:11.522Z,5.00
2019-01-23T00:34:41.074Z,4.80
2019-01-23T00:37:10.605Z,5.03
2019-01-23T00:39:40.109Z,4.87
2019-01-23T00:42:09.606Z,4.93
2019-01-23T00:44:46.507Z,5.23
2019-01-23T00:47:15.992Z,4.87
2019-01-23T00:49:45.489Z,5.17
2019-01-23T00:52:15.015Z,5.20
2019-01-23T00:54:46.076Z,4.73
2019-01-23T00:57:15.561Z,5.00
2019-01-23T00:59:45.103Z,5.13
2019-01-23T01:02:14.593Z,4.60
2019-01-23T01:04:44.088Z,5.27
2019-01-23T01:07:13.614Z,4.90
2019-01-23T01:09:43.146Z,5.27
2019-01-23T01:12:12.636Z,5.23
2019-01-23T01:14:42.153Z,5.20
2019-01-23T01:17:11.640Z,5.40
2019-01-23T01:19:41.207Z,4.83
2019-01-23T01:22:10.727Z,5.37
2019-01-23T01:24:42.278Z,4.83
2019-01-23T01:27:11.420Z,4.90
2019-01-23T01:29:40.971Z,5.70
2019-01-23T01:32:10.455Z,5.07
2019-01-23T01:34:40.006Z,5.50
2019-01-23T01:37:09.562Z,4.87
2019-01-23T01:39:39.049Z,5.00
2019-01-23T01:42:08.554Z,5.20
2019-01-23T01:44:38.091Z,4.80
2019-01-23T01:47:07.573Z,5.13
2019-01-23T01:49:37.077Z,5.30
2019-01-23T01:52:06.591Z,5.20
2019-01-23T01:54:39.036Z,5.10
2019-01-23T01:57:08.520Z,5.17
2019-01-23T01:59:38.008Z,5.90
2019-01-23T02:02:07.538Z,5.23
2019-01-23T02:04:37.011Z,5.07
2019-01-23T02:07:06.546Z,4.60
2019-01-23T02:09:36.031Z,5.30
2019-01-23T02:12:05.714Z,5.53
2019-01-23T02:14:44.369Z,5.37
2019-01-23T02:17:13.847Z,4.77
2019-01-23T02:19:43.283Z,5.10
2019-01-23T02:22:12.851Z,6.47
2019-01-23T02:24:42.338Z,5.07
2019-01-23T02:27:11.851Z,5.00
2019-01-23T02:29:43.375Z,5.10
2019-01-23T02:32:12.468Z,5.53
2019-01-23T02:34:53.702Z,5.90
2019-01-23T02:37:23.190Z,5.07
2019-01-23T02:39:52.732Z,5.17
2019-01-23T02:42:22.241Z,5.63
2019-01-23T02:45:20.952Z,5.43
2019-01-23T02:47:51.167Z,5.60
2019-01-23T02:50:20.759Z,4.93
2019-01-23T02:52:50.238Z,5.13
2019-01-23T02:55:19.775Z,4.93
2019-01-23T02:57:49.250Z,4.70
2019-01-23T03:00:19.705Z,5.40
2019-01-23T03:02:49.759Z,5.83
2019-01-23T03:05:21.524Z,5.43
2019-01-23T03:07:51.020Z,5.20
2019-01-23T03:10:21.798Z,5.57
2019-01-23T03:12:51.259Z,5.50
2019-01-23T03:15:20.825Z,5.37
2019-01-23T03:17:50.391Z,5.40
2019-01-23T03:20:20.485Z,5.77
2019-01-23T03:22:51.129Z,5.50
2019-01-23T03:25:20.633Z,5.40
2019-01-23T03:27:50.108Z,5.47
2019-01-23T03:30:21.740Z,5.40
2019-01-23T03:32:51.208Z,5.80
2019-01-23T03:35:20.812Z,5.87
2019-01-23T03:37:50.355Z,5.57
2019-01-23T03:40:22.894Z,5.90
2019-01-23T03:42:52.336Z,5.90
2019-01-23T03:45:21.876Z,5.77
2019-01-23T03:47:51.379Z,5.80
2019-01-23T03:50:21.153Z,5.13
2019-01-23T03:52:50.623Z,5.33
2019-01-23T03:55:20.577Z,5.77
2019-01-23T03:57:50.161Z,5.40
2019-01-23T04:00:21.191Z,6.40
2019-01-23T04:02:53.564Z,5.60
2019-01-23T04:05:23.238Z,5.40
2019-01-23T04:07:52.741Z,5.63
2019-01-23T04:10:22.270Z,5.67
2019-01-23T04:12:51.817Z,5.73
2019-01-23T04:15:34.341Z,5.50
2019-01-23T04:18:03.812Z,5.40
2019-01-23T04:20:33.269Z,5.53
2019-01-23T04:23:02.759Z,5.90
2019-01-23T04:25:59.013Z,5.53
2019-01-23T04:28:28.509Z,5.90
2019-01-23T04:30:57.977Z,5.53
2019-01-23T04:33:27.417Z,6.30
2019-01-23T04:35:56.904Z,5.53
2019-01-23T04:38:26.372Z,5.97
2019-01-23T04:40:55.860Z,5.80
2019-01-23T04:43:25.325Z,5.90
2019-01-23T04:45:54.806Z,5.50
2019-01-23T04:48:24.265Z,5.87
2019-01-23T04:51:27.778Z,5.47
2019-01-23T04:53:57.344Z,5.00
2019-01-23T04:56:26.775Z,5.73
2019-01-23T04:58:56.272Z,5.90
2019-01-23T05:01:25.758Z,5.60
2019-01-23T05:03:55.225Z,5.57
2019-01-23T05:06:24.712Z,5.43
2019-01-23T05:08:55.063Z,5.70
2019-01-23T05:11:24.536Z,5.33
2019-01-23T05:13:54.022Z,5.57
2019-01-23T05:16:43.729Z,4.73
2019-01-23T05:19:13.188Z,5.60
2019-01-23T05:21:42.652Z,5.30
2019-01-23T05:24:12.095Z,5.40
2019-01-23T05:26:41.579Z,5.30
2019-01-23T05:29:11.028Z,5.17
2019-01-23T05:31:40.530Z,5.20
2019-01-23T05:34:10.082Z,5.00
2019-01-23T05:36:39.525Z,5.37
2019-01-23T05:39:09.640Z,4.80
2019-01-23T05:41:39.124Z,5.10
2019-01-23T05:44:08.645Z,5.10
2019-01-23T05:46:39.299Z,5.50
2019-01-23T05:49:08.774Z,5.07
2019-01-23T05:51:38.258Z,5.60
2019-01-23T05:54:07.705Z,4.67
2019-01-23T05:56:37.201Z,5.30
2019-01-23T05:59:06.679Z,5.27
2019-01-23T06:01:36.133Z,4.80
2019-01-23T06:04:05.753Z,5.10
2019-01-23T06:06:35.208Z,5.03
2019-01-23T06:09:07.875Z,5.80
2019-01-23T06:11:37.434Z,5.10
2019-01-23T06:14:06.912Z,4.97
2019-01-23T06:16:36.358Z,5.00
2019-01-23T06:19:05.890Z,4.97
2019-01-23T06:21:35.369Z,4.97
2019-01-23T06:24:04.849Z,5.77
2019-01-23T06:26:41.662Z,4.40
2019-01-23T06:29:11.156Z,5.43
2019-01-23T06:31:40.664Z,4.90
2019-01-23T06:34:10.127Z,4.53
2019-01-23T06:36:39.595Z,5.30
2019-01-23T06:39:09.597Z,5.37
2019-01-23T06:41:39.092Z,4.97
2019-01-23T06:44:08.579Z,5.17
2019-01-23T06:46:38.067Z,4.60
2019-01-23T06:49:09.897Z,5.53
2019-01-23T06:51:40.530Z,4.97
2019-01-23T06:54:09.924Z,5.00
2019-01-23T06:56:39.431Z,4.70
2019-01-23T06:59:08.880Z,5.03
2019-01-23T07:01:40.659Z,5.07
2019-01-23T07:04:10.165Z,4.97
2019-01-23T07:06:39.624Z,5.03
2019-01-23T07:09:11.412Z,5.20
2019-01-23T07:11:40.957Z,4.90
2019-01-23T07:16:39.150Z,5.07
2019-01-23T07:19:08.658Z,4.63
2019-01-23T07:21:39.288Z,5.47
2019-01-23T07:24:08.700Z,4.97
2019-01-23T07:26:38.192Z,5.33
2019-01-23T07:29:07.638Z,4.90
2019-01-23T07:31:37.120Z,5.10
2019-01-23T07:34:06.623Z,4.93
2019-01-23T07:36:36.120Z,5.07
2019-01-23T07:39:09.370Z,5.57
2019-01-23T07:41:40.045Z,5.73
2019-01-23T07:46:39.353Z,5.60
2019-01-23T07:49:08.831Z,4.90
2019-01-23T07:51:38.292Z,5.27
2019-01-23T07:54:07.821Z,5.40
2019-01-23T07:56:46.096Z,5.33
2019-01-23T07:59:15.582Z,5.13
2019-01-23T08:01:45.061Z,5.03
2019-01-23T08:04:14.571Z,5.40
2019-01-23T08:06:44.052Z,5.33
2019-01-23T08:09:13.557Z,5.10
2019-01-23T08:11:43.100Z,5.00
2019-01-23T08:16:39.407Z,5.40
2019-01-23T08:19:08.943Z,5.53
2019-01-23T08:21:38.411Z,5.10
2019-01-23T08:24:07.905Z,5.57
2019-01-23T08:26:46.436Z,5.20
2019-01-23T08:29:15.903Z,5.50
2019-01-23T08:31:45.358Z,4.87
2019-01-23T08:34:14.923Z,5.20
2019-01-23T08:36:44.395Z,5.30
2019-01-23T08:39:13.910Z,5.40
2019-01-23T08:41:43.411Z,5.60
2019-01-23T08:44:12.882Z,5.63
2019-01-23T08:46:42.402Z,5.07
2019-01-23T08:49:11.890Z,5.50
2019-01-23T08:51:41.345Z,5.77
2019-01-23T08:56:39.478Z,5.40
2019-01-23T08:59:08.953Z,5.90
2019-01-23T09:01:38.454Z,6.23
2019-01-23T09:04:07.953Z,6.70
2019-01-23T09:06:39.758Z,6.10
2019-01-23T09:09:09.546Z,5.90
2019-01-23T09:11:39.065Z,5.97
2019-01-23T09:14:08.588Z,5.60
2019-01-23T09:16:47.156Z,5.93
2019-01-23T09:19:16.635Z,6.20
2019-01-23T09:21:46.136Z,5.80
2019-01-23T09:24:15.651Z,6.27
2019-01-23T09:26:45.151Z,6.13
2019-01-23T09:29:14.620Z,6.43
2019-01-23T09:32:11.955Z,6.90
2019-01-23T09:34:56.231Z,5.63
2019-01-23T09:37:53.071Z,5.50
2019-01-23T09:40:43.684Z,5.40
2019-01-23T09:43:43.722Z,5.80
2019-01-23T09:46:30.007Z,6.30
2019-01-23T09:49:30.382Z,6.23
2019-01-23T09:52:58.625Z,5.40
2019-01-23T09:55:35.077Z,5.57
2019-01-23T09:58:09.264Z,5.40
2019-01-23T10:00:38.745Z,6.17
2019-01-23T10:03:08.252Z,5.60
2019-01-23T10:05:46.077Z,6.03
2019-01-23T10:08:15.604Z,6.50
2019-01-23T10:10:45.060Z,6.23
2019-01-23T10:13:14.612Z,5.53
2019-01-23T10:15:46.829Z,6.30
2019-01-23T10:18:18.431Z,5.50
2019-01-23T10:20:49.088Z,5.30
2019-01-23T10:23:19.855Z,5.60
2019-01-23T10:25:49.325Z,6.10
2019-01-23T10:28:18.823Z,5.80
2019-01-23T10:30:48.294Z,6.03
2019-01-23T10:33:17.773Z,6.57
2019-01-23T10:35:47.318Z,5.60
2019-01-23T10:38:16.850Z,6.20
2019-01-23T10:40:47.889Z,6.33
2019-01-23T10:43:17.392Z,5.80
2019-01-23T10:46:16.163Z,6.03
2019-01-23T10:48:48.227Z,5.67
2019-01-23T10:51:17.674Z,5.80
2019-01-23T10:53:47.205Z,5.77
2019-01-23T10:56:16.773Z,4.93
2019-01-23T10:58:46.258Z,6.33
2019-01-23T11:01:15.719Z,5.63
2019-01-23T11:03:45.219Z,5.60
2019-01-23T11:06:14.755Z,5.93
2019-01-23T11:08:44.223Z,6.03
2019-01-23T11:11:13.781Z,5.53
2019-01-23T11:13:45.985Z,6.00
2019-01-23T11:16:15.492Z,6.43
2019-01-23T11:18:45.036Z,6.10
2019-01-23T11:21:14.520Z,6.13
2019-01-23T11:23:44.005Z,5.80
2019-01-23T11:26:13.638Z,5.93
2019-01-23T11:28:43.127Z,5.47
2019-01-23T11:31:12.605Z,6.17
2019-01-23T11:33:43.235Z,6.87
2019-01-23T11:36:12.696Z,6.40
2019-01-23T11:38:42.203Z,6.30
2019-01-23T11:41:11.825Z,6.20
2019-01-23T11:43:41.296Z,6.77
2019-01-23T11:46:10.788Z,6.03
2019-01-23T11:48:40.306Z,6.37
2019-01-23T11:51:09.771Z,5.87
2019-01-23T11:53:39.258Z,5.73
2019-01-23T11:56:08.895Z,6.70
2019-01-23T11:58:38.385Z,5.63
2019-01-23T12:01:08.192Z,5.83
2019-01-23T12:03:37.707Z,6.07
2019-01-23T12:06:08.283Z,6.47
2019-01-23T12:08:37.848Z,6.53
2019-01-23T12:11:07.319Z,6.00
2019-01-23T12:13:36.806Z,5.50
2019-01-23T12:16:06.294Z,6.40
2019-01-23T12:18:37.816Z,6.07
2019-01-23T12:21:06.972Z,6.07
2019-01-23T12:23:36.468Z,6.43
2019-01-23T12:26:38.433Z,6.87
2019-01-23T12:29:07.930Z,6.50
2019-01-23T12:31:37.410Z,6.47
2019-01-23T12:34:06.921Z,5.97
2019-01-23T12:36:36.462Z,6.03
2019-01-23T12:39:08.321Z,6.57
2019-01-23T12:41:37.873Z,6.30
2019-01-23T12:44:07.798Z,6.20
2019-01-23T12:46:37.275Z,7.03
2019-01-23T12:49:06.780Z,6.03
2019-01-23T12:51:36.261Z,7.33
2019-01-23T12:54:05.825Z,7.27
2019-01-23T12:56:43.700Z,6.10
2019-01-23T12:59:14.288Z,6.53
2019-01-23T13:01:43.795Z,6.50
2019-01-23T13:04:13.292Z,6.37
2019-01-23T13:06:43.231Z,6.27
2019-01-23T13:09:12.791Z,6.50
2019-01-23T13:11:42.286Z,5.97
2019-01-23T13:14:11.759Z,6.73
2019-01-23T13:16:41.270Z,6.40
2019-01-23T13:19:13.906Z,6.17
2019-01-23T13:21:43.438Z,6.63
2019-01-23T13:24:12.897Z,6.50
2019-01-23T13:26:43.978Z,6.60
2019-01-23T13:29:13.437Z,6.10
2019-01-23T13:31:48.890Z,6.50
2019-01-23T13:34:41.993Z,6.40
2019-01-23T13:37:11.503Z,6.00
2019-01-23T13:39:41.032Z,6.17
2019-01-23T13:42:10.577Z,6.10
2019-01-23T13:44:40.048Z,5.80
2019-01-23T13:47:09.554Z,7.07
2019-01-23T13:49:39.066Z,6.13
2019-01-23T13:52:08.549Z,6.77
2019-01-23T13:54:38.033Z,6.50
2019-01-23T13:57:07.551Z,6.33
2019-01-23T13:59:37.025Z,6.53
2019-01-23T14:02:06.500Z,6.17
2019-01-23T14:04:36.041Z,6.50
2019-01-23T14:07:05.522Z,6.30
2019-01-23T14:09:35.012Z,6.37
2019-01-23T14:12:04.557Z,6.80
2019-01-23T14:14:36.163Z,6.47
2019-01-23T14:17:05.690Z,6.33
2019-01-23T14:19:35.228Z,6.83
2019-01-23T14:22:06.577Z,6.83
2019-01-23T14:24:38.023Z,7.23
2019-01-23T14:27:10.122Z,7.40
2019-01-23T14:29:39.658Z,6.73
2019-01-23T14:32:09.135Z,6.63
2019-01-23T14:34:38.659Z,7.13
2019-01-23T14:37:08.145Z,6.93
2019-01-23T14:39:37.652Z,7.20
2019-01-23T14:42:08.781Z,6.80
2019-01-23T14:44:38.269Z,7.17
2019-01-23T14:47:08.764Z,7.37
2019-01-23T14:49:38.303Z,6.63
2019-01-23T14:52:07.902Z,6.80
2019-01-23T14:54:37.374Z,7.00
2019-01-23T14:57:06.902Z,7.10
2019-01-23T14:59:36.708Z,7.60
2019-01-23T15:02:10.117Z,7.43
2019-01-23T15:04:37.391Z,7.13
2019-01-23T15:07:06.904Z,6.60
2019-01-23T15:09:36.480Z,7.23
2019-01-23T15:12:06.000Z,6.80
2019-01-23T15:14:42.576Z,7.30
2019-01-23T15:17:12.092Z,7.33
2019-01-23T15:19:41.596Z,7.03
2019-01-23T15:22:11.110Z,7.00
2019-01-23T15:24:43.597Z,7.67
2019-01-23T15:27:13.410Z,6.80
2019-01-23T15:29:42.874Z,7.90
2019-01-23T15:32:17.112Z,7.30
2019-01-23T15:34:43.448Z,6.93
2019-01-23T15:37:12.978Z,6.73
2019-01-23T15:39:43.560Z,7.83
2019-01-23T15:42:13.095Z,7.90
2019-01-23T15:44:42.666Z,8.20
2019-01-23T15:47:12.160Z,7.77
2019-01-23T15:49:41.637Z,7.57
2019-01-23T15:52:11.153Z,6.87
2019-01-23T15:54:42.861Z,6.97
2019-01-23T15:57:12.387Z,6.80
2019-01-23T15:59:41.900Z,7.60
2019-01-23T16:02:11.391Z,7.10
2019-01-23T16:04:40.913Z,7.63
2019-01-23T16:07:10.465Z,6.93
2019-01-23T16:09:39.980Z,6.53
2019-01-23T16:12:09.468Z,6.70
2019-01-23T16:14:39.004Z,7.27
2019-01-23T16:17:08.512Z,6.40
2019-01-23T16:19:37.973Z,7.17
2019-01-23T16:22:07.502Z,7.73
2019-01-23T16:24:37.043Z,6.63
2019-01-23T16:27:06.550Z,6.90
2019-01-23T16:29:36.091Z,7.13
2019-01-23T16:32:05.708Z,6.33
2019-01-23T16:34:35.221Z,7.27
2019-01-23T16:37:05.175Z,7.43
2019-01-23T16:39:36.153Z,7.33
2019-01-23T16:42:05.629Z,6.17
2019-01-23T16:44:35.192Z,7.60
2019-01-23T16:47:04.769Z,7.07
2019-01-23T16:49:34.362Z,6.73
2019-01-23T16:52:03.907Z,6.87
2019-01-23T16:54:33.923Z,6.60
2019-01-23T16:57:03.427Z,6.67
2019-01-23T16:59:33.244Z,7.07
2019-01-23T17:02:02.863Z,7.27
2019-01-23T17:04:36.308Z,7.00
2019-01-23T17:07:08.365Z,7.00
2019-01-23T17:09:37.875Z,6.33
2019-01-23T17:12:09.377Z,6.73
2019-01-23T17:14:41.240Z,7.87
2019-01-23T17:17:10.763Z,7.93
2019-01-23T17:19:40.237Z,7.73
2019-01-23T17:22:09.728Z,7.20
2019-01-23T17:24:41.286Z,7.73
2019-01-23T17:27:10.764Z,7.70
2019-01-23T17:29:40.283Z,7.90
2019-01-23T17:32:09.745Z,7.63
2019-01-23T17:34:39.235Z,7.53
2019-01-23T17:37:08.757Z,8.03
2019-01-23T17:39:38.263Z,7.67
2019-01-23T17:42:07.757Z,7.43
2019-01-23T17:44:37.283Z,7.43
2019-01-23T17:47:08.804Z,7.50
2019-01-23T17:49:38.023Z,7.93
2019-01-23T17:52:07.548Z,7.17
2019-01-23T17:54:37.088Z,6.60
2019-01-23T17:57:06.585Z,7.53
2019-01-23T17:59:36.122Z,7.47
2019-01-23T18:02:05.714Z,6.50
2019-01-23T18:04:35.207Z,8.50
2019-01-23T18:07:04.751Z,7.67
2019-01-23T18:09:34.218Z,8.03
2019-01-23T18:12:05.767Z,7.90
2019-01-23T18:14:49.049Z,8.00
2019-01-23T18:17:15.220Z,8.30
2019-01-23T18:19:44.768Z,7.30
2019-01-23T18:22:14.513Z,8.93
2019-01-23T18:24:44.029Z,7.53
2019-01-23T18:27:13.561Z,7.80
2019-01-23T18:29:43.077Z,7.97
2019-01-23T18:32:12.561Z,7.70
2019-01-23T18:35:18.896Z,7.77
2019-01-23T18:38:11.988Z,7.07
2019-01-23T18:41:24.858Z,7.47
2019-01-23T18:47:35.573Z,8.97
2019-01-23T18:50:47.774Z,8.20
2019-01-23T18:53:17.337Z,8.07
2019-01-23T18:55:47.731Z,7.40
2019-01-23T18:58:17.405Z,7.57
2019-01-23T19:01:02.325Z,7.57
2019-01-23T19:03:37.239Z,7.40
2019-01-23T19:06:24.476Z,8.20
2019-01-23T19:09:15.136Z,8.10
2019-01-23T19:11:44.589Z,7.23
2019-01-23T19:14:14.187Z,6.93
2019-01-23T19:16:44.227Z,7.47
2019-01-23T19:19:13.730Z,7.27
2019-01-23T19:21:43.473Z,7.07
2019-01-23T19:26:50.156Z,8.00
2019-01-23T19:29:20.334Z,7.50
2019-01-23T19:31:50.139Z,7.17
2019-01-23T19:34:21.756Z,7.10
2019-01-23T19:37:25.592Z,6.90
2019-01-23T19:40:03.883Z,6.70
2019-01-23T19:42:59.929Z,7.27
2019-01-23T19:45:50.095Z,6.73
2019-01-23T19:48:17.112Z,7.30
2019-01-23T19:50:46.727Z,7.33
2019-01-23T19:53:16.212Z,7.53
2019-01-23T19:55:54.676Z,7.27
2019-01-23T19:58:25.075Z,7.67
2019-01-23T20:00:55.479Z,7.87
2019-01-23T20:03:25.034Z,7.00
2019-01-23T20:06:01.893Z,7.67
2019-01-23T20:08:31.424Z,7.33
2019-01-23T20:11:06.259Z,7.73
2019-01-23T20:13:39.776Z,6.93
2019-01-23T20:16:09.385Z,7.50
2019-01-23T20:18:39.432Z,7.70
2019-01-23T20:21:10.932Z,6.80
2019-01-23T20:23:43.219Z,7.10
2019-01-23T20:26:12.941Z,7.27
2019-01-23T20:28:56.778Z,6.90
2019-01-23T20:31:43.835Z,6.80
2019-01-23T20:36:49.982Z,7.30
2019-01-23T20:39:19.464Z,6.93
2019-01-23T20:41:48.957Z,6.97
2019-01-23T20:44:22.006Z,7.33
2019-01-23T20:46:58.023Z,7.23
2019-01-23T20:49:27.287Z,6.77
2019-01-23T20:51:59.064Z,7.70
2019-01-23T20:54:33.938Z,7.03
2019-01-23T20:57:03.460Z,6.73
2019-01-23T20:59:32.986Z,7.07
2019-01-23T21:02:02.477Z,7.80
2019-01-23T21:04:31.993Z,7.23
2019-01-23T21:07:08.339Z,7.63
2019-01-23T21:09:45.672Z,7.03
2019-01-23T21:12:26.397Z,7.30
2019-01-23T21:15:04.217Z,7.23
2019-01-23T21:17:33.155Z,7.73
2019-01-23T21:20:02.659Z,7.90
2019-01-23T21:22:32.143Z,7.20
2019-01-23T21:25:01.652Z,7.27
2019-01-23T21:27:31.142Z,6.97
2019-01-23T21:30:00.640Z,7.33
2019-01-23T21:32:30.125Z,7.37
2019-01-23T21:35:01.685Z,7.50
2019-01-23T21:37:31.225Z,7.50
2019-01-23T21:40:00.694Z,7.47
2019-01-23T21:42:30.244Z,7.97
2019-01-23T21:45:02.807Z,8.23
2019-01-23T21:47:32.250Z,7.40
2019-01-23T21:50:01.783Z,7.60
2019-01-23T21:52:31.324Z,7.23
2019-01-23T21:55:00.795Z,7.13
2019-01-23T21:57:30.269Z,8.07
2019-01-23T21:59:59.789Z,7.80
2019-01-23T22:02:29.468Z,8.07
2019-01-23T22:04:58.979Z,7.63
2019-01-23T22:07:28.491Z,8.00
2019-01-23T22:09:57.944Z,8.07
2019-01-23T22:12:27.473Z,8.03
2019-01-23T22:14:56.963Z,8.00
2019-01-23T22:17:26.444Z,8.40
2019-01-23T22:19:55.964Z,8.37
2019-01-23T22:22:27.050Z,7.90
2019-01-23T22:24:56.510Z,8.10
2019-01-23T22:27:26.051Z,8.00
2019-01-23T22:29:55.526Z,9.03
2019-01-23T22:32:25.018Z,7.63
2019-01-23T22:35:01.778Z,8.43
2019-01-23T22:37:31.236Z,9.50
2019-01-23T22:40:00.727Z,7.77
2019-01-23T22:42:30.243Z,8.97
2019-01-23T22:44:59.710Z,8.27
2019-01-23T22:47:29.145Z,8.50
2019-01-23T22:50:00.040Z,8.27
2019-01-23T22:52:29.490Z,9.23
2019-01-23T22:54:58.974Z,9.10
2019-01-23T22:57:28.528Z,8.40
2019-01-23T22:59:58.016Z,8.20
2019-01-23T23:02:27.618Z,8.77
2019-01-23T23:05:00.750Z,8.10
2019-01-23T23:07:30.221Z,8.37
2019-01-23T23:09:59.703Z,8.33
2019-01-23T23:12:30.765Z,8.23
2019-01-23T23:15:00.250Z,8.73
2019-01-23T23:17:29.769Z,8.57
2019-01-23T23:19:59.259Z,8.50
2019-01-23T23:22:30.036Z,8.43
2019-01-23T23:24:59.502Z,8.93
2019-01-23T23:27:29.063Z,8.47
2019-01-23T23:29:58.556Z,8.23
2019-01-23T23:32:28.086Z,7.93
2019-01-23T23:34:57.576Z,8.53
2019-01-23T23:37:27.056Z,8.63
2019-01-23T23:39:56.493Z,7.43
2019-01-23T23:42:25.984Z,8.47
2019-01-23T23:44:55.437Z,7.83
2019-01-23T23:47:24.913Z,8.97
2019-01-23T23:49:54.433Z,7.93
2019-01-23T23:52:23.930Z,8.83
2019-01-23T23:54:53.421Z,7.97
2019-01-23T23:57:22.981Z,8.73
2019-01-23T23:59:52.456Z,8.90
